createdAt,value
2023-02-17T00:03:47.153Z,41.20
2023-02-17T00:08:47.032Z,41.20
2023-02-17T00:13:46.950Z,32.40
2023-02-17T00:18:46.882Z,31.70
2023-02-17T00:23:46.850Z,30.90
2023-02-17T00:28:46.774Z,28.00
2023-02-17T00:33:46.729Z,33.20
2023-02-17T00:38:55.596Z,30.40
2023-02-17T00:43:46.650Z,33.00
2023-02-17T00:48:46.720Z,29.70
2023-02-17T00:53:46.673Z,29.10
2023-02-17T00:58:46.512Z,25.60
2023-02-17T01:03:46.495Z,30.10
2023-02-17T01:08:46.372Z,30.30
2023-02-17T01:13:46.310Z,36.40
2023-02-17T01:18:46.278Z,31.70
2023-02-17T01:23:46.231Z,32.00
2023-02-17T01:28:46.144Z,34.00
2023-02-17T01:33:46.074Z,31.40
2023-02-17T01:38:46.098Z,33.20
2023-02-17T01:43:46.017Z,27.70
2023-02-17T01:48:45.987Z,36.30
2023-02-17T01:53:45.990Z,27.60
2023-02-17T01:58:45.851Z,31.30
2023-02-17T02:03:45.778Z,33.70
2023-02-17T02:08:52.719Z,28.20
2023-02-17T02:13:45.633Z,30.80
2023-02-17T02:18:45.591Z,29.50
2023-02-17T02:23:45.576Z,27.20
2023-02-17T02:28:45.459Z,30.30
2023-02-17T02:33:45.443Z,28.70
2023-02-17T02:38:45.388Z,22.90
2023-02-17T02:43:45.286Z,24.50
2023-02-17T02:48:45.296Z,20.90
2023-02-17T02:53:45.224Z,22.30
2023-02-17T02:58:45.383Z,23.90
2023-02-17T03:03:45.140Z,25.80
2023-02-17T03:08:45.191Z,19.70
2023-02-17T03:13:45.107Z,18.80
2023-02-17T03:18:45.010Z,20.70
2023-02-17T03:23:44.956Z,20.20
2023-02-17T03:28:45.047Z,18.60
2023-02-17T03:33:44.802Z,18.40
2023-02-17T03:38:44.712Z,19.80
2023-02-17T03:43:44.657Z,18.10
2023-02-17T03:48:44.628Z,15.90
2023-02-17T03:53:44.636Z,16.50
2023-02-17T03:58:44.477Z,15.80
2023-02-17T04:03:44.549Z,16.10
2023-02-17T04:08:44.433Z,16.60
2023-02-17T04:13:44.377Z,16.20
2023-02-17T04:18:44.344Z,15.20
2023-02-17T04:23:44.262Z,20.70
2023-02-17T04:28:44.205Z,14.00
2023-02-17T04:33:44.351Z,17.50
2023-02-17T04:38:44.061Z,21.00
2023-02-17T04:43:44.068Z,15.20
2023-02-17T04:48:43.965Z,15.40
2023-02-17T04:53:43.856Z,18.60
2023-02-17T04:58:51.935Z,15.80
2023-02-17T05:03:43.825Z,15.50
2023-02-17T05:08:43.759Z,16.90
2023-02-17T05:13:43.667Z,18.00
2023-02-17T05:18:43.733Z,16.60
2023-02-17T05:23:43.633Z,17.90
2023-02-17T05:28:43.524Z,15.80
2023-02-17T05:33:43.465Z,16.90
2023-02-17T05:38:43.430Z,14.20
2023-02-17T05:43:43.349Z,15.00
2023-02-17T05:48:43.261Z,20.80
2023-02-17T05:53:43.262Z,15.90
2023-02-17T05:58:46.566Z,16.60
2023-02-17T06:03:44.170Z,15.70
2023-02-17T06:08:43.100Z,14.50
2023-02-17T06:13:43.095Z,13.00
2023-02-17T06:18:42.982Z,14.10
2023-02-17T06:23:42.924Z,14.50
2023-02-17T06:28:42.956Z,16.60
2023-02-17T06:33:42.903Z,15.50
2023-02-17T06:38:42.850Z,18.50
2023-02-17T06:43:42.886Z,14.10
2023-02-17T06:48:42.697Z,13.90
2023-02-17T06:53:42.673Z,16.80
2023-02-17T06:58:42.589Z,15.50
2023-02-17T07:03:51.485Z,15.60
2023-02-17T07:08:42.503Z,20.30
2023-02-17T07:13:42.369Z,16.30
2023-02-17T07:18:42.283Z,19.10
2023-02-17T07:23:42.270Z,23.30
2023-02-17T07:28:43.303Z,19.60
2023-02-17T07:33:42.227Z,24.00
2023-02-17T07:38:42.128Z,20.70
2023-02-17T07:43:42.069Z,17.60
2023-02-17T07:48:41.976Z,19.00
2023-02-17T07:53:41.905Z,22.00
2023-02-17T07:58:41.863Z,19.30
2023-02-17T08:03:41.815Z,21.90
2023-02-17T08:08:41.760Z,20.70
2023-02-17T08:13:41.714Z,15.00
2023-02-17T08:18:41.617Z,14.40
2023-02-17T08:23:41.672Z,15.30
2023-02-17T08:28:41.535Z,15.80
2023-02-17T08:33:41.562Z,18.90
2023-02-17T08:38:41.471Z,15.80
2023-02-17T08:43:42.488Z,14.30
2023-02-17T08:48:41.340Z,13.80
2023-02-17T08:53:41.402Z,13.30
2023-02-17T08:58:41.197Z,16.90
2023-02-17T09:03:41.167Z,12.90
2023-02-17T09:08:41.338Z,14.60
2023-02-17T09:13:41.179Z,11.70
2023-02-17T09:18:41.230Z,17.00
2023-02-17T09:23:43.022Z,12.60
2023-02-17T09:28:41.010Z,12.70
2023-02-17T09:33:40.973Z,12.10
2023-02-17T09:38:40.883Z,10.70
2023-02-17T09:43:40.731Z,11.70
2023-02-17T09:48:40.665Z,12.30
2023-02-17T09:53:40.705Z,11.90
2023-02-17T09:58:40.600Z,12.50
2023-02-17T10:03:40.545Z,12.20
2023-02-17T10:08:40.568Z,9.80
2023-02-17T10:13:40.550Z,10.70
2023-02-17T10:18:40.583Z,9.40
2023-02-17T10:23:40.377Z,10.40
2023-02-17T10:28:40.346Z,9.70
2023-02-17T10:33:40.381Z,8.90
2023-02-17T10:38:40.154Z,8.20
2023-02-17T10:43:40.125Z,10.70
2023-02-17T10:48:40.022Z,10.30
2023-02-17T10:53:40.044Z,10.20
2023-02-17T10:58:39.978Z,7.40
2023-02-17T11:03:39.873Z,11.90
2023-02-17T11:08:39.926Z,7.80
2023-02-17T11:13:39.778Z,8.50
2023-02-17T11:18:39.737Z,8.40
2023-02-17T11:23:39.743Z,9.20
2023-02-17T11:28:39.583Z,8.70
2023-02-17T11:33:39.558Z,7.90
2023-02-17T11:38:39.670Z,7.00
2023-02-17T11:43:39.762Z,8.50
2023-02-17T11:48:39.455Z,10.40
2023-02-17T11:53:39.419Z,8.90
2023-02-17T11:58:39.331Z,8.90
2023-02-17T12:03:39.371Z,9.10
2023-02-17T12:08:39.295Z,7.90
2023-02-17T12:13:40.176Z,9.20
2023-02-17T12:18:39.019Z,8.00
2023-02-17T12:23:39.000Z,13.50
2023-02-17T12:28:38.918Z,7.90
2023-02-17T12:33:38.856Z,5.90
2023-02-17T12:38:38.851Z,9.10
2023-02-17T12:43:38.848Z,6.80
2023-02-17T12:48:38.838Z,7.10
2023-02-17T12:53:38.723Z,7.40
2023-02-17T12:58:38.666Z,6.50
2023-02-17T13:08:19.592Z,8.10
2023-02-17T13:13:21.292Z,9.20
2023-02-17T13:18:19.426Z,6.50
2023-02-17T13:23:19.459Z,6.80
2023-02-17T13:28:19.405Z,7.80
2023-02-17T13:33:19.308Z,6.70
2023-02-17T13:38:19.234Z,7.00
2023-02-17T13:43:19.228Z,7.10
2023-02-17T13:48:19.156Z,7.30
2023-02-17T13:53:19.139Z,6.90
2023-02-17T13:58:19.013Z,7.40
2023-02-17T14:03:19.056Z,6.40
2023-02-17T14:08:18.942Z,6.80
2023-02-17T14:13:18.855Z,5.40
2023-02-17T14:18:18.784Z,5.90
2023-02-17T14:23:18.742Z,6.80
2023-02-17T14:28:18.673Z,4.60
2023-02-17T14:33:18.681Z,5.50
2023-02-17T14:38:18.628Z,5.20
2023-02-17T14:43:18.608Z,7.20
2023-02-17T14:48:18.566Z,4.10
2023-02-17T14:53:18.463Z,5.10
2023-02-17T14:58:18.415Z,5.90
2023-02-17T15:03:18.330Z,5.50
2023-02-17T15:08:19.316Z,8.10
2023-02-17T15:13:18.321Z,11.10
2023-02-17T15:18:18.248Z,12.80
2023-02-17T15:23:19.161Z,12.00
2023-02-17T15:28:18.161Z,8.60
2023-02-17T15:33:17.962Z,7.10
2023-02-17T15:38:17.960Z,8.30
2023-02-17T15:43:17.948Z,6.20
2023-02-17T15:48:17.956Z,8.80
2023-02-17T15:53:24.741Z,10.30
2023-02-17T15:58:17.759Z,6.00
2023-02-17T16:03:17.739Z,8.00
2023-02-17T16:08:17.604Z,6.80
2023-02-17T16:13:17.541Z,8.10
2023-02-17T16:18:17.468Z,7.80
2023-02-17T16:23:17.439Z,10.20
2023-02-17T16:28:17.401Z,8.10
2023-02-17T16:33:17.348Z,6.20
2023-02-17T16:38:17.374Z,8.30
2023-02-17T16:43:18.270Z,7.70
2023-02-17T16:48:17.164Z,7.30
2023-02-17T16:53:17.137Z,7.70
2023-02-17T16:58:17.035Z,8.20
2023-02-17T17:03:17.023Z,7.00
2023-02-17T17:08:17.024Z,8.90
2023-02-17T17:13:17.961Z,7.40
2023-02-17T17:18:17.020Z,8.40
2023-02-17T17:23:16.948Z,7.50
2023-02-17T17:28:16.912Z,7.90
2023-02-17T17:33:16.704Z,8.50
2023-02-17T17:38:16.626Z,8.80
2023-02-17T17:43:16.547Z,7.70
2023-02-17T17:48:16.570Z,7.10
2023-02-17T17:53:16.521Z,9.40
2023-02-17T17:58:16.401Z,11.20
2023-02-17T18:03:16.342Z,9.60
2023-02-17T18:08:16.294Z,12.30
2023-02-17T18:13:16.244Z,11.30
2023-02-17T18:18:16.277Z,13.20
2023-02-17T18:23:16.162Z,12.90
2023-02-17T18:28:18.238Z,10.60
2023-02-17T18:33:16.071Z,12.90
2023-02-17T18:38:16.113Z,10.20
2023-02-17T18:43:17.115Z,15.10
2023-02-17T18:48:15.852Z,11.50
2023-02-17T18:53:15.818Z,11.50
2023-02-17T18:58:15.879Z,11.50
2023-02-17T19:03:15.694Z,10.60
2023-02-17T19:08:24.476Z,12.50
2023-02-17T19:13:15.591Z,10.80
2023-02-17T19:18:15.579Z,12.20
2023-02-17T19:23:16.498Z,9.20
2023-02-17T19:28:15.484Z,10.90
2023-02-17T19:33:15.346Z,9.10
2023-02-17T19:38:15.294Z,11.80
2023-02-17T19:43:15.240Z,8.50
2023-02-17T19:48:15.178Z,12.70
2023-02-17T19:53:15.149Z,10.80
2023-02-17T19:58:15.092Z,13.10
2023-02-17T20:03:15.018Z,11.00
2023-02-17T20:08:15.975Z,15.80
2023-02-17T20:13:14.910Z,14.40
2023-02-17T20:18:14.959Z,11.90
2023-02-17T20:23:15.035Z,11.90
2023-02-17T20:28:15.015Z,11.80
2023-02-17T20:33:14.764Z,12.30
2023-02-17T20:38:14.731Z,12.10
2023-02-17T20:43:14.826Z,14.00
2023-02-17T20:48:15.622Z,14.90
2023-02-17T20:53:14.703Z,14.40
2023-02-17T20:58:14.592Z,14.40
2023-02-17T21:03:14.506Z,16.60
2023-02-17T21:08:14.297Z,11.70
2023-02-17T21:13:14.446Z,14.60
2023-02-17T21:18:14.375Z,13.80
2023-02-17T21:23:17.691Z,13.60
2023-02-17T21:28:16.624Z,16.70
2023-02-17T21:33:14.239Z,18.40
2023-02-17T21:38:13.975Z,16.30
2023-02-17T21:43:13.908Z,15.50
2023-02-17T21:48:13.898Z,14.90
2023-02-17T21:53:13.837Z,15.40
2023-02-17T21:58:13.840Z,15.80
2023-02-17T22:03:13.804Z,17.10
2023-02-17T22:08:13.745Z,14.90
2023-02-17T22:13:13.630Z,14.60
2023-02-17T22:18:13.632Z,16.00
2023-02-17T22:23:13.672Z,15.20
2023-02-17T22:28:14.506Z,14.30
2023-02-17T22:33:13.419Z,16.10
2023-02-17T22:38:13.338Z,18.10
2023-02-17T22:43:13.407Z,15.40
2023-02-17T22:48:14.302Z,16.80
2023-02-17T22:53:13.206Z,15.30
2023-02-17T22:58:13.395Z,17.60
2023-02-17T23:03:13.173Z,14.10
2023-02-17T23:08:13.106Z,19.20
2023-02-17T23:13:12.983Z,17.40
2023-02-17T23:18:12.985Z,19.60
2023-02-17T23:23:12.906Z,17.60
2023-02-17T23:28:12.912Z,17.30
2023-02-17T23:33:12.715Z,17.60
2023-02-17T23:38:12.768Z,19.70
2023-02-17T23:43:12.644Z,19.70
2023-02-17T23:48:12.600Z,18.50
2023-02-17T23:53:12.540Z,20.90
2023-02-17T23:58:12.442Z,22.30
